sensor_id;sensor_type;location;lat;lon;timestamp;temperature;humidity
22212;DHT22;11275;52.488;13.462;2023-02-28T00:00:44;3.90;99.90
22212;DHT22;11275;52.488;13.462;2023-02-28T00:03:10;3.90;99.90
22212;DHT22;11275;52.488;13.462;2023-02-28T00:05:35;3.90;99.90
22212;DHT22;11275;52.488;13.462;2023-02-28T00:08:01;4.00;99.90
22212;DHT22;11275;52.488;13.462;2023-02-28T00:10:27;3.90;99.90
22212;DHT22;11275;52.488;13.462;2023-02-28T00:12:54;3.80;99.90
22212;DHT22;11275;52.488;13.462;2023-02-28T00:15:21;3.70;99.90
22212;DHT22;11275;52.488;13.462;2023-02-28T00:17:48;3.70;99.90
22212;DHT22;11275;52.488;13.462;2023-02-28T00:20:14;3.70;99.90
22212;DHT22;11275;52.488;13.462;2023-02-28T00:22:40;3.70;99.90
22212;DHT22;11275;52.488;13.462;2023-02-28T00:25:06;3.70;99.90
22212;DHT22;11275;52.488;13.462;2023-02-28T00:27:35;3.70;99.90
22212;DHT22;11275;52.488;13.462;2023-02-28T00:30:01;3.60;99.90
22212;DHT22;11275;52.488;13.462;2023-02-28T00:32:26;3.70;99.90
22212;DHT22;11275;52.488;13.462;2023-02-28T00:34:52;3.70;99.90
22212;DHT22;11275;52.488;13.462;2023-02-28T00:37:17;3.70;99.90
22212;DHT22;11275;52.488;13.462;2023-02-28T00:39:43;3.70;99.90
22212;DHT22;11275;52.488;13.462;2023-02-28T00:42:09;3.70;99.90
22212;DHT22;11275;52.488;13.462;2023-02-28T00:44:34;3.70;99.90
22212;DHT22;11275;52.488;13.462;2023-02-28T00:47:00;3.70;99.90
22212;DHT22;11275;52.488;13.462;2023-02-28T00:49:26;3.80;99.90
22212;DHT22;11275;52.488;13.462;2023-02-28T00:51:52;3.80;99.90
22212;DHT22;11275;52.488;13.462;2023-02-28T00:54:18;3.70;99.90
22212;DHT22;11275;52.488;13.462;2023-02-28T00:56:43;3.70;99.90
22212;DHT22;11275;52.488;13.462;2023-02-28T00:59:11;3.70;99.90
22212;DHT22;11275;52.488;13.462;2023-02-28T01:01:37;3.70;99.90
22212;DHT22;11275;52.488;13.462;2023-02-28T01:04:02;3.70;99.90
22212;DHT22;11275;52.488;13.462;2023-02-28T01:06:28;3.70;99.90
22212;DHT22;11275;52.488;13.462;2023-02-28T01:08:54;3.80;99.90
22212;DHT22;11275;52.488;13.462;2023-02-28T01:11:19;3.80;99.90
22212;DHT22;11275;52.488;13.462;2023-02-28T01:13:45;3.80;99.90
22212;DHT22;11275;52.488;13.462;2023-02-28T01:16:11;3.80;99.90
22212;DHT22;11275;52.488;13.462;2023-02-28T01:18:37;3.80;99.90
22212;DHT22;11275;52.488;13.462;2023-02-28T01:21:03;3.80;99.90
22212;DHT22;11275;52.488;13.462;2023-02-28T01:23:29;3.80;99.90
22212;DHT22;11275;52.488;13.462;2023-02-28T01:25:54;3.80;99.90
22212;DHT22;11275;52.488;13.462;2023-02-28T01:28:20;3.80;99.90
22212;DHT22;11275;52.488;13.462;2023-02-28T01:30:49;3.80;99.90
22212;DHT22;11275;52.488;13.462;2023-02-28T01:33:15;3.80;99.90
22212;DHT22;11275;52.488;13.462;2023-02-28T01:35:41;3.70;99.90
22212;DHT22;11275;52.488;13.462;2023-02-28T01:38:06;3.60;99.90
22212;DHT22;11275;52.488;13.462;2023-02-28T01:40:32;3.50;99.90
22212;DHT22;11275;52.488;13.462;2023-02-28T01:42:57;3.50;99.90
22212;DHT22;11275;52.488;13.462;2023-02-28T01:47:50;3.30;99.90
22212;DHT22;11275;52.488;13.462;2023-02-28T01:50:18;3.30;99.90
22212;DHT22;11275;52.488;13.462;2023-02-28T01:52:44;3.30;99.90
22212;DHT22;11275;52.488;13.462;2023-02-28T01:55:11;3.20;99.90
22212;DHT22;11275;52.488;13.462;2023-02-28T01:57:38;3.20;99.90
22212;DHT22;11275;52.488;13.462;2023-02-28T02:00:05;3.10;99.90
22212;DHT22;11275;52.488;13.462;2023-02-28T02:02:32;3.10;99.90
22212;DHT22;11275;52.488;13.462;2023-02-28T02:05:00;3.00;99.90
22212;DHT22;11275;52.488;13.462;2023-02-28T02:07:29;2.90;99.90
22212;DHT22;11275;52.488;13.462;2023-02-28T02:10:05;2.90;99.90
22212;DHT22;11275;52.488;13.462;2023-02-28T02:15:20;2.90;99.90
22212;DHT22;11275;52.488;13.462;2023-02-28T02:17:49;2.80;99.90
22212;DHT22;11275;52.488;13.462;2023-02-28T02:35:37;2.70;99.90
22212;DHT22;11275;52.488;13.462;2023-02-28T02:40:58;2.60;99.90
22212;DHT22;11275;52.488;13.462;2023-02-28T02:43:29;2.50;99.90
22212;DHT22;11275;52.488;13.462;2023-02-28T02:45:56;2.40;99.90
22212;DHT22;11275;52.488;13.462;2023-02-28T02:48:25;2.40;99.90
22212;DHT22;11275;52.488;13.462;2023-02-28T02:50:55;2.40;99.90
22212;DHT22;11275;52.488;13.462;2023-02-28T02:53:24;2.40;99.90
22212;DHT22;11275;52.488;13.462;2023-02-28T02:55:52;2.40;99.90
22212;DHT22;11275;52.488;13.462;2023-02-28T02:58:20;2.40;99.90
22212;DHT22;11275;52.488;13.462;2023-02-28T03:00:47;2.30;99.90
22212;DHT22;11275;52.488;13.462;2023-02-28T03:03:14;2.40;99.90
22212;DHT22;11275;52.488;13.462;2023-02-28T03:08:08;2.30;99.90
22212;DHT22;11275;52.488;13.462;2023-02-28T03:10:38;2.30;99.90
22212;DHT22;11275;52.488;13.462;2023-02-28T03:15:35;2.50;99.90
22212;DHT22;11275;52.488;13.462;2023-02-28T03:18:08;2.40;99.90
22212;DHT22;11275;52.488;13.462;2023-02-28T03:23:16;2.50;99.90
22212;DHT22;11275;52.488;13.462;2023-02-28T03:31:10;2.30;99.90
22212;DHT22;11275;52.488;13.462;2023-02-28T03:33:39;2.30;99.90
22212;DHT22;11275;52.488;13.462;2023-02-28T03:36:09;2.30;99.90
22212;DHT22;11275;52.488;13.462;2023-02-28T03:38:37;2.30;99.90
22212;DHT22;11275;52.488;13.462;2023-02-28T03:41:26;2.20;99.90
22212;DHT22;11275;52.488;13.462;2023-02-28T03:43:56;2.20;99.90
22212;DHT22;11275;52.488;13.462;2023-02-28T03:46:23;2.10;99.90
22212;DHT22;11275;52.488;13.462;2023-02-28T03:48:53;2.10;99.90
22212;DHT22;11275;52.488;13.462;2023-02-28T03:51:20;2.10;99.90
22212;DHT22;11275;52.488;13.462;2023-02-28T03:53:50;2.10;99.90
22212;DHT22;11275;52.488;13.462;2023-02-28T03:56:22;2.10;99.90
22212;DHT22;11275;52.488;13.462;2023-02-28T03:58:51;2.00;99.90
22212;DHT22;11275;52.488;13.462;2023-02-28T04:01:29;2.00;99.90
22212;DHT22;11275;52.488;13.462;2023-02-28T04:03:57;2.00;99.90
22212;DHT22;11275;52.488;13.462;2023-02-28T04:06:23;2.00;99.90
22212;DHT22;11275;52.488;13.462;2023-02-28T04:08:49;2.00;99.90
22212;DHT22;11275;52.488;13.462;2023-02-28T04:13:40;1.90;99.90
22212;DHT22;11275;52.488;13.462;2023-02-28T04:16:08;1.90;99.90
22212;DHT22;11275;52.488;13.462;2023-02-28T04:18:40;1.90;99.90
22212;DHT22;11275;52.488;13.462;2023-02-28T04:21:06;1.90;99.90
22212;DHT22;11275;52.488;13.462;2023-02-28T04:23:32;1.90;99.90
22212;DHT22;11275;52.488;13.462;2023-02-28T04:25:57;1.90;99.90
22212;DHT22;11275;52.488;13.462;2023-02-28T04:28:23;1.90;99.90
22212;DHT22;11275;52.488;13.462;2023-02-28T04:30:55;1.80;99.90
22212;DHT22;11275;52.488;13.462;2023-02-28T04:33:21;1.70;99.90
22212;DHT22;11275;52.488;13.462;2023-02-28T04:35:47;1.70;99.90
22212;DHT22;11275;52.488;13.462;2023-02-28T04:38:12;1.70;99.90
22212;DHT22;11275;52.488;13.462;2023-02-28T04:40:38;1.70;99.90
22212;DHT22;11275;52.488;13.462;2023-02-28T04:43:03;1.70;99.90
22212;DHT22;11275;52.488;13.462;2023-02-28T04:45:29;1.70;99.90
22212;DHT22;11275;52.488;13.462;2023-02-28T04:47:57;1.60;99.90
22212;DHT22;11275;52.488;13.462;2023-02-28T04:50:23;1.70;99.90
22212;DHT22;11275;52.488;13.462;2023-02-28T04:52:48;1.60;99.90
22212;DHT22;11275;52.488;13.462;2023-02-28T04:55:14;1.60;99.90
22212;DHT22;11275;52.488;13.462;2023-02-28T04:57:39;1.60;99.90
22212;DHT22;11275;52.488;13.462;2023-02-28T05:00:08;1.60;99.90
22212;DHT22;11275;52.488;13.462;2023-02-28T05:02:37;1.60;99.90
22212;DHT22;11275;52.488;13.462;2023-02-28T05:05:03;1.50;99.90
22212;DHT22;11275;52.488;13.462;2023-02-28T05:07:29;1.50;99.90
22212;DHT22;11275;52.488;13.462;2023-02-28T05:09:57;1.50;99.90
22212;DHT22;11275;52.488;13.462;2023-02-28T05:12:23;1.40;99.90
22212;DHT22;11275;52.488;13.462;2023-02-28T05:14:48;1.50;99.90
22212;DHT22;11275;52.488;13.462;2023-02-28T05:17:14;1.40;99.90
22212;DHT22;11275;52.488;13.462;2023-02-28T05:19:39;1.40;99.90
22212;DHT22;11275;52.488;13.462;2023-02-28T05:22:10;1.40;99.90
22212;DHT22;11275;52.488;13.462;2023-02-28T05:24:37;1.40;99.90
22212;DHT22;11275;52.488;13.462;2023-02-28T05:27:03;1.40;99.90
22212;DHT22;11275;52.488;13.462;2023-02-28T05:29:28;1.40;99.90
22212;DHT22;11275;52.488;13.462;2023-02-28T05:31:54;1.30;99.90
22212;DHT22;11275;52.488;13.462;2023-02-28T05:34:20;1.30;99.90
22212;DHT22;11275;52.488;13.462;2023-02-28T05:36:45;1.30;99.90
22212;DHT22;11275;52.488;13.462;2023-02-28T05:39:11;1.30;99.90
22212;DHT22;11275;52.488;13.462;2023-02-28T05:41:41;1.20;99.90
22212;DHT22;11275;52.488;13.462;2023-02-28T05:44:07;1.20;99.90
22212;DHT22;11275;52.488;13.462;2023-02-28T05:46:33;1.30;99.90
22212;DHT22;11275;52.488;13.462;2023-02-28T05:48:59;1.30;99.90
22212;DHT22;11275;52.488;13.462;2023-02-28T05:51:26;1.30;99.90
22212;DHT22;11275;52.488;13.462;2023-02-28T05:53:51;1.30;99.90
22212;DHT22;11275;52.488;13.462;2023-02-28T05:56:16;1.30;99.90
22212;DHT22;11275;52.488;13.462;2023-02-28T05:58:42;1.30;99.90
22212;DHT22;11275;52.488;13.462;2023-02-28T06:01:21;1.30;99.90
22212;DHT22;11275;52.488;13.462;2023-02-28T06:03:48;1.30;99.90
22212;DHT22;11275;52.488;13.462;2023-02-28T06:06:13;1.30;99.90
22212;DHT22;11275;52.488;13.462;2023-02-28T06:08:39;1.30;99.90
22212;DHT22;11275;52.488;13.462;2023-02-28T06:11:04;1.30;99.90
22212;DHT22;11275;52.488;13.462;2023-02-28T06:13:30;1.20;99.90
22212;DHT22;11275;52.488;13.462;2023-02-28T06:15:55;1.20;99.90
22212;DHT22;11275;52.488;13.462;2023-02-28T06:18:21;1.20;99.90
22212;DHT22;11275;52.488;13.462;2023-02-28T06:20:52;1.20;99.90
22212;DHT22;11275;52.488;13.462;2023-02-28T06:23:19;1.20;99.90
22212;DHT22;11275;52.488;13.462;2023-02-28T06:25:45;1.20;99.90
22212;DHT22;11275;52.488;13.462;2023-02-28T06:28:11;1.20;99.90
22212;DHT22;11275;52.488;13.462;2023-02-28T06:30:37;1.30;99.90
22212;DHT22;11275;52.488;13.462;2023-02-28T06:33:02;1.30;99.90
22212;DHT22;11275;52.488;13.462;2023-02-28T06:35:28;1.30;99.90
22212;DHT22;11275;52.488;13.462;2023-02-28T06:37:54;1.30;99.90
22212;DHT22;11275;52.488;13.462;2023-02-28T06:40:20;1.30;99.90
22212;DHT22;11275;52.488;13.462;2023-02-28T06:42:45;1.30;99.90
22212;DHT22;11275;52.488;13.462;2023-02-28T06:45:11;1.30;99.90
22212;DHT22;11275;52.488;13.462;2023-02-28T06:47:40;1.30;99.90
22212;DHT22;11275;52.488;13.462;2023-02-28T06:50:06;1.30;99.90
22212;DHT22;11275;52.488;13.462;2023-02-28T06:52:32;1.30;99.90
22212;DHT22;11275;52.488;13.462;2023-02-28T06:54:58;1.30;99.90
22212;DHT22;11275;52.488;13.462;2023-02-28T06:57:29;1.30;99.90
22212;DHT22;11275;52.488;13.462;2023-02-28T06:59:59;1.30;99.90
22212;DHT22;11275;52.488;13.462;2023-02-28T07:02:24;1.40;99.90
22212;DHT22;11275;52.488;13.462;2023-02-28T07:04:50;1.40;99.90
22212;DHT22;11275;52.488;13.462;2023-02-28T07:07:16;1.40;99.90
22212;DHT22;11275;52.488;13.462;2023-02-28T07:09:41;1.40;99.90
22212;DHT22;11275;52.488;13.462;2023-02-28T07:12:07;1.50;99.90
22212;DHT22;11275;52.488;13.462;2023-02-28T07:14:32;1.60;99.90
22212;DHT22;11275;52.488;13.462;2023-02-28T07:16:58;1.60;99.90
22212;DHT22;11275;52.488;13.462;2023-02-28T07:19:24;1.60;99.90
22212;DHT22;11275;52.488;13.462;2023-02-28T07:21:50;1.60;99.90
22212;DHT22;11275;52.488;13.462;2023-02-28T07:24:15;1.60;99.90
22212;DHT22;11275;52.488;13.462;2023-02-28T07:26:43;1.70;99.90
22212;DHT22;11275;52.488;13.462;2023-02-28T07:29:08;1.70;99.90
22212;DHT22;11275;52.488;13.462;2023-02-28T07:31:34;1.80;99.90
22212;DHT22;11275;52.488;13.462;2023-02-28T07:33:59;1.70;99.90
22212;DHT22;11275;52.488;13.462;2023-02-28T07:36:25;1.70;99.90
22212;DHT22;11275;52.488;13.462;2023-02-28T07:38:51;1.80;99.90
22212;DHT22;11275;52.488;13.462;2023-02-28T07:41:17;1.80;99.90
22212;DHT22;11275;52.488;13.462;2023-02-28T07:43:43;1.80;99.90
22212;DHT22;11275;52.488;13.462;2023-02-28T07:46:10;1.90;99.90
22212;DHT22;11275;52.488;13.462;2023-02-28T07:48:36;1.90;99.90
22212;DHT22;11275;52.488;13.462;2023-02-28T07:51:01;1.90;99.90
22212;DHT22;11275;52.488;13.462;2023-02-28T07:53:27;1.90;99.90
22212;DHT22;11275;52.488;13.462;2023-02-28T07:55:59;1.90;99.90
22212;DHT22;11275;52.488;13.462;2023-02-28T07:58:26;2.00;99.90
22212;DHT22;11275;52.488;13.462;2023-02-28T08:00:52;2.00;99.90
22212;DHT22;11275;52.488;13.462;2023-02-28T08:03:18;2.00;99.90
22212;DHT22;11275;52.488;13.462;2023-02-28T08:05:44;2.10;99.90
22212;DHT22;11275;52.488;13.462;2023-02-28T08:08:10;2.10;99.90
22212;DHT22;11275;52.488;13.462;2023-02-28T08:10:36;2.20;99.90
22212;DHT22;11275;52.488;13.462;2023-02-28T08:13:01;2.20;99.90
22212;DHT22;11275;52.488;13.462;2023-02-28T08:15:27;2.30;99.90
22212;DHT22;11275;52.488;13.462;2023-02-28T08:17:52;2.40;99.90
22212;DHT22;11275;52.488;13.462;2023-02-28T08:20:18;2.40;99.90
22212;DHT22;11275;52.488;13.462;2023-02-28T08:22:44;2.40;99.90
22212;DHT22;11275;52.488;13.462;2023-02-28T08:25:10;2.50;99.90
22212;DHT22;11275;52.488;13.462;2023-02-28T08:27:35;2.50;99.90
22212;DHT22;11275;52.488;13.462;2023-02-28T08:30:01;2.50;99.90
22212;DHT22;11275;52.488;13.462;2023-02-28T08:32:26;2.60;99.90
22212;DHT22;11275;52.488;13.462;2023-02-28T08:34:52;2.70;99.90
22212;DHT22;11275;52.488;13.462;2023-02-28T08:37:17;2.70;99.90
22212;DHT22;11275;52.488;13.462;2023-02-28T08:39:43;2.80;99.90
22212;DHT22;11275;52.488;13.462;2023-02-28T08:42:08;2.90;99.90
22212;DHT22;11275;52.488;13.462;2023-02-28T08:44:34;3.50;99.90
22212;DHT22;11275;52.488;13.462;2023-02-28T08:46:59;3.70;99.90
22212;DHT22;11275;52.488;13.462;2023-02-28T08:49:25;5.50;99.90
22212;DHT22;11275;52.488;13.462;2023-02-28T08:51:50;6.30;97.90
22212;DHT22;11275;52.488;13.462;2023-02-28T08:54:16;6.00;97.90
22212;DHT22;11275;52.488;13.462;2023-02-28T08:56:47;5.20;95.80
22212;DHT22;11275;52.488;13.462;2023-02-28T08:59:13;4.60;99.60
22212;DHT22;11275;52.488;13.462;2023-02-28T09:01:39;4.30;99.90
22212;DHT22;11275;52.488;13.462;2023-02-28T09:04:06;4.10;98.80
22212;DHT22;11275;52.488;13.462;2023-02-28T09:06:33;3.90;99.90
22212;DHT22;11275;52.488;13.462;2023-02-28T09:08:59;3.90;99.90
22212;DHT22;11275;52.488;13.462;2023-02-28T09:11:26;3.90;99.90
22212;DHT22;11275;52.488;13.462;2023-02-28T09:13:51;3.90;99.50
22212;DHT22;11275;52.488;13.462;2023-02-28T09:16:17;3.90;99.90
22212;DHT22;11275;52.488;13.462;2023-02-28T09:18:43;3.90;99.90
22212;DHT22;11275;52.488;13.462;2023-02-28T09:21:11;4.00;99.90
22212;DHT22;11275;52.488;13.462;2023-02-28T09:23:39;4.00;99.90
22212;DHT22;11275;52.488;13.462;2023-02-28T09:26:05;4.00;99.60
22212;DHT22;11275;52.488;13.462;2023-02-28T09:28:31;4.00;99.90
22212;DHT22;11275;52.488;13.462;2023-02-28T09:30:56;4.10;99.90
22212;DHT22;11275;52.488;13.462;2023-02-28T09:33:24;4.10;99.00
22212;DHT22;11275;52.488;13.462;2023-02-28T09:35:49;4.10;97.80
22212;DHT22;11275;52.488;13.462;2023-02-28T09:38:16;4.10;98.70
22212;DHT22;11275;52.488;13.462;2023-02-28T09:43:10;4.00;94.70
22212;DHT22;11275;52.488;13.462;2023-02-28T09:45:40;4.00;96.70
22212;DHT22;11275;52.488;13.462;2023-02-28T09:48:18;4.10;98.50
22212;DHT22;11275;52.488;13.462;2023-02-28T09:51:05;4.20;96.70
22212;DHT22;11275;52.488;13.462;2023-02-28T09:53:36;4.20;96.40
22212;DHT22;11275;52.488;13.462;2023-02-28T09:56:08;4.30;99.10
22212;DHT22;11275;52.488;13.462;2023-02-28T09:58:39;4.30;96.20
22212;DHT22;11275;52.488;13.462;2023-02-28T10:06:20;4.30;96.30
22212;DHT22;11275;52.488;13.462;2023-02-28T10:08:58;4.30;94.10
22212;DHT22;11275;52.488;13.462;2023-02-28T10:11:26;4.30;94.20
22212;DHT22;11275;52.488;13.462;2023-02-28T10:14:06;4.40;95.70
22212;DHT22;11275;52.488;13.462;2023-02-28T10:16:39;4.40;93.90
22212;DHT22;11275;52.488;13.462;2023-02-28T10:19:11;4.40;94.60
22212;DHT22;11275;52.488;13.462;2023-02-28T10:21:39;4.50;94.20
22212;DHT22;11275;52.488;13.462;2023-02-28T10:26:37;4.60;94.30
22212;DHT22;11275;52.488;13.462;2023-02-28T10:29:03;4.60;94.40
22212;DHT22;11275;52.488;13.462;2023-02-28T10:31:29;4.60;95.10
22212;DHT22;11275;52.488;13.462;2023-02-28T10:33:54;4.60;94.60
22212;DHT22;11275;52.488;13.462;2023-02-28T10:36:20;4.70;94.00
22212;DHT22;11275;52.488;13.462;2023-02-28T10:38:46;4.70;93.60
22212;DHT22;11275;52.488;13.462;2023-02-28T10:41:28;4.80;95.40
22212;DHT22;11275;52.488;13.462;2023-02-28T10:44:13;5.00;93.90
22212;DHT22;11275;52.488;13.462;2023-02-28T10:46:39;5.10;94.10
22212;DHT22;11275;52.488;13.462;2023-02-28T10:49:06;5.30;95.20
22212;DHT22;11275;52.488;13.462;2023-02-28T10:51:38;5.30;94.00
22212;DHT22;11275;52.488;13.462;2023-02-28T10:54:04;5.40;93.70
22212;DHT22;11275;52.488;13.462;2023-02-28T10:56:30;5.40;92.30
22212;DHT22;11275;52.488;13.462;2023-02-28T11:03:59;5.20;91.70
22212;DHT22;11275;52.488;13.462;2023-02-28T11:06:26;5.20;92.50
22212;DHT22;11275;52.488;13.462;2023-02-28T11:08:58;5.20;92.10
22212;DHT22;11275;52.488;13.462;2023-02-28T11:11:25;5.30;93.00
22212;DHT22;11275;52.488;13.462;2023-02-28T11:13:52;5.50;93.10
22212;DHT22;11275;52.488;13.462;2023-02-28T11:16:18;5.60;94.10
22212;DHT22;11275;52.488;13.462;2023-02-28T11:18:47;5.50;92.10
22212;DHT22;11275;52.488;13.462;2023-02-28T11:21:30;5.40;91.60
22212;DHT22;11275;52.488;13.462;2023-02-28T11:23:59;5.30;91.60
22212;DHT22;11275;52.488;13.462;2023-02-28T11:29:24;5.20;91.50
22212;DHT22;11275;52.488;13.462;2023-02-28T11:32:32;5.20;91.90
22212;DHT22;11275;52.488;13.462;2023-02-28T11:34:39;5.40;93.00
22212;DHT22;11275;52.488;13.462;2023-02-28T11:37:08;5.50;91.60
22212;DHT22;11275;52.488;13.462;2023-02-28T11:39:35;5.60;91.80
22212;DHT22;11275;52.488;13.462;2023-02-28T11:42:07;5.60;91.30
22212;DHT22;11275;52.488;13.462;2023-02-28T11:47:24;5.60;91.90
22212;DHT22;11275;52.488;13.462;2023-02-28T11:55:05;5.70;90.60
22212;DHT22;11275;52.488;13.462;2023-02-28T12:02:52;5.90;91.40
22212;DHT22;11275;52.488;13.462;2023-02-28T12:05:30;5.90;91.50
22212;DHT22;11275;52.488;13.462;2023-02-28T12:08:04;5.90;92.40
22212;DHT22;11275;52.488;13.462;2023-02-28T12:10:36;5.90;91.30
22212;DHT22;11275;52.488;13.462;2023-02-28T12:15:33;5.70;91.50
22212;DHT22;11275;52.488;13.462;2023-02-28T12:18:15;5.70;91.90
22212;DHT22;11275;52.488;13.462;2023-02-28T12:20:49;5.70;91.30
22212;DHT22;11275;52.488;13.462;2023-02-28T12:25:56;5.80;91.20
22212;DHT22;11275;52.488;13.462;2023-02-28T12:28:26;5.90;91.40
22212;DHT22;11275;52.488;13.462;2023-02-28T12:30:56;5.80;90.60
22212;DHT22;11275;52.488;13.462;2023-02-28T12:33:22;5.80;90.60
22212;DHT22;11275;52.488;13.462;2023-02-28T12:35:51;5.80;90.70
22212;DHT22;11275;52.488;13.462;2023-02-28T12:38:22;5.90;91.30
22212;DHT22;11275;52.488;13.462;2023-02-28T12:43:19;6.00;90.50
22212;DHT22;11275;52.488;13.462;2023-02-28T12:48:37;6.20;91.70
22212;DHT22;11275;52.488;13.462;2023-02-28T12:50:59;6.30;90.90
22212;DHT22;11275;52.488;13.462;2023-02-28T12:53:27;6.30;89.70
22212;DHT22;11275;52.488;13.462;2023-02-28T12:56:08;6.20;87.60
22212;DHT22;11275;52.488;13.462;2023-02-28T13:06:31;6.10;87.50
22212;DHT22;11275;52.488;13.462;2023-02-28T13:11:48;6.10;89.80
22212;DHT22;11275;52.488;13.462;2023-02-28T13:14:28;6.10;89.00
22212;DHT22;11275;52.488;13.462;2023-02-28T13:17:17;6.10;89.00
22212;DHT22;11275;52.488;13.462;2023-02-28T13:27:11;6.30;89.90
22212;DHT22;11275;52.488;13.462;2023-02-28T13:29:41;6.20;85.50
22212;DHT22;11275;52.488;13.462;2023-02-28T13:34:39;6.10;86.60
22212;DHT22;11275;52.488;13.462;2023-02-28T13:45:24;6.20;86.90
22212;DHT22;11275;52.488;13.462;2023-02-28T13:47:51;6.20;87.70
22212;DHT22;11275;52.488;13.462;2023-02-28T13:55:24;6.50;90.60
22212;DHT22;11275;52.488;13.462;2023-02-28T13:58:08;6.40;86.40
22212;DHT22;11275;52.488;13.462;2023-02-28T14:00:37;6.30;87.40
22212;DHT22;11275;52.488;13.462;2023-02-28T14:05:33;6.30;89.30
22212;DHT22;11275;52.488;13.462;2023-02-28T14:08:03;6.30;87.50
22212;DHT22;11275;52.488;13.462;2023-02-28T14:11:04;6.30;88.50
22212;DHT22;11275;52.488;13.462;2023-02-28T14:16:21;6.20;89.00
22212;DHT22;11275;52.488;13.462;2023-02-28T14:18:52;6.20;87.00
22212;DHT22;11275;52.488;13.462;2023-02-28T14:21:33;6.20;87.80
22212;DHT22;11275;52.488;13.462;2023-02-28T14:24:10;6.30;88.80
22212;DHT22;11275;52.488;13.462;2023-02-28T14:31:54;6.30;87.60
22212;DHT22;11275;52.488;13.462;2023-02-28T14:37:09;6.30;89.30
22212;DHT22;11275;52.488;13.462;2023-02-28T14:39:35;6.30;88.30
22212;DHT22;11275;52.488;13.462;2023-02-28T14:42:02;6.30;87.30
22212;DHT22;11275;52.488;13.462;2023-02-28T14:44:30;6.20;89.50
22212;DHT22;11275;52.488;13.462;2023-02-28T14:46:57;6.30;88.70
22212;DHT22;11275;52.488;13.462;2023-02-28T14:49:27;6.20;88.10
22212;DHT22;11275;52.488;13.462;2023-02-28T14:52:03;6.20;88.60
22212;DHT22;11275;52.488;13.462;2023-02-28T14:54:31;6.10;88.30
22212;DHT22;11275;52.488;13.462;2023-02-28T14:56:56;6.10;88.50
22212;DHT22;11275;52.488;13.462;2023-02-28T15:01:50;6.10;88.80
22212;DHT22;11275;52.488;13.462;2023-02-28T15:04:25;6.10;89.00
22212;DHT22;11275;52.488;13.462;2023-02-28T15:07:09;6.10;88.50
22212;DHT22;11275;52.488;13.462;2023-02-28T15:09:35;6.10;86.90
22212;DHT22;11275;52.488;13.462;2023-02-28T15:12:00;6.10;87.60
22212;DHT22;11275;52.488;13.462;2023-02-28T15:14:27;6.10;88.10
22212;DHT22;11275;52.488;13.462;2023-02-28T15:16:57;6.10;87.10
22212;DHT22;11275;52.488;13.462;2023-02-28T15:19:30;6.10;87.20
22212;DHT22;11275;52.488;13.462;2023-02-28T15:22:08;6.20;88.10
22212;DHT22;11275;52.488;13.462;2023-02-28T15:24:39;6.20;88.50
22212;DHT22;11275;52.488;13.462;2023-02-28T15:27:09;6.20;88.70
22212;DHT22;11275;52.488;13.462;2023-02-28T15:29:47;6.10;88.00
22212;DHT22;11275;52.488;13.462;2023-02-28T15:32:32;6.10;88.30
22212;DHT22;11275;52.488;13.462;2023-02-28T15:34:58;6.10;87.70
22212;DHT22;11275;52.488;13.462;2023-02-28T15:37:40;6.10;88.20
22212;DHT22;11275;52.488;13.462;2023-02-28T15:40:14;6.10;88.30
22212;DHT22;11275;52.488;13.462;2023-02-28T15:42:40;6.20;88.70
22212;DHT22;11275;52.488;13.462;2023-02-28T15:47:53;6.10;87.80
22212;DHT22;11275;52.488;13.462;2023-02-28T15:50:19;6.10;88.50
22212;DHT22;11275;52.488;13.462;2023-02-28T15:52:44;6.10;88.00
22212;DHT22;11275;52.488;13.462;2023-02-28T15:55:24;6.00;87.10
22212;DHT22;11275;52.488;13.462;2023-02-28T15:57:52;6.00;87.60
22212;DHT22;11275;52.488;13.462;2023-02-28T16:00:20;6.00;89.10
22212;DHT22;11275;52.488;13.462;2023-02-28T16:02:46;6.10;88.90
22212;DHT22;11275;52.488;13.462;2023-02-28T16:07:44;6.00;89.10
22212;DHT22;11275;52.488;13.462;2023-02-28T16:10:10;6.00;89.30
22212;DHT22;11275;52.488;13.462;2023-02-28T16:12:37;5.90;88.80
22212;DHT22;11275;52.488;13.462;2023-02-28T16:15:06;5.90;90.10
22212;DHT22;11275;52.488;13.462;2023-02-28T16:17:37;5.90;89.60
22212;DHT22;11275;52.488;13.462;2023-02-28T16:23:01;5.80;90.10
22212;DHT22;11275;52.488;13.462;2023-02-28T16:25:37;5.70;90.30
22212;DHT22;11275;52.488;13.462;2023-02-28T16:28:03;5.80;90.40
22212;DHT22;11275;52.488;13.462;2023-02-28T16:30:31;5.70;90.30
22212;DHT22;11275;52.488;13.462;2023-02-28T16:32:57;5.60;90.40
22212;DHT22;11275;52.488;13.462;2023-02-28T16:35:29;5.60;90.70
22212;DHT22;11275;52.488;13.462;2023-02-28T16:37:55;5.60;90.70
22212;DHT22;11275;52.488;13.462;2023-02-28T16:40:22;5.60;91.20
22212;DHT22;11275;52.488;13.462;2023-02-28T16:42:48;5.60;90.80
22212;DHT22;11275;52.488;13.462;2023-02-28T16:45:18;5.50;91.00
22212;DHT22;11275;52.488;13.462;2023-02-28T16:47:45;5.50;91.30
22212;DHT22;11275;52.488;13.462;2023-02-28T16:50:18;5.50;91.00
22212;DHT22;11275;52.488;13.462;2023-02-28T16:52:44;5.40;90.70
22212;DHT22;11275;52.488;13.462;2023-02-28T16:55:09;5.40;90.90
22212;DHT22;11275;52.488;13.462;2023-02-28T16:57:35;5.30;91.00
22212;DHT22;11275;52.488;13.462;2023-02-28T17:00:01;5.30;91.10
22212;DHT22;11275;52.488;13.462;2023-02-28T17:02:28;5.30;91.10
22212;DHT22;11275;52.488;13.462;2023-02-28T17:04:53;5.30;91.60
22212;DHT22;11275;52.488;13.462;2023-02-28T17:07:19;5.20;91.80
22212;DHT22;11275;52.488;13.462;2023-02-28T17:09:44;5.30;91.60
22212;DHT22;11275;52.488;13.462;2023-02-28T17:12:10;5.20;91.40
22212;DHT22;11275;52.488;13.462;2023-02-28T17:14:36;5.20;91.70
22212;DHT22;11275;52.488;13.462;2023-02-28T17:17:03;5.20;91.60
22212;DHT22;11275;52.488;13.462;2023-02-28T17:19:29;5.20;92.00
22212;DHT22;11275;52.488;13.462;2023-02-28T17:21:55;5.10;91.90
22212;DHT22;11275;52.488;13.462;2023-02-28T17:24:20;5.10;92.20
22212;DHT22;11275;52.488;13.462;2023-02-28T17:26:46;5.00;92.20
22212;DHT22;11275;52.488;13.462;2023-02-28T17:29:15;5.00;92.30
22212;DHT22;11275;52.488;13.462;2023-02-28T17:31:41;5.00;92.20
22212;DHT22;11275;52.488;13.462;2023-02-28T17:34:07;5.00;92.30
22212;DHT22;11275;52.488;13.462;2023-02-28T17:36:32;5.00;92.60
22212;DHT22;11275;52.488;13.462;2023-02-28T17:38:58;4.90;92.40
22212;DHT22;11275;52.488;13.462;2023-02-28T17:41:24;4.90;92.70
22212;DHT22;11275;52.488;13.462;2023-02-28T17:43:51;4.80;92.70
22212;DHT22;11275;52.488;13.462;2023-02-28T17:46:20;4.80;92.80
22212;DHT22;11275;52.488;13.462;2023-02-28T17:48:49;4.80;92.80
22212;DHT22;11275;52.488;13.462;2023-02-28T17:51:15;4.80;92.80
22212;DHT22;11275;52.488;13.462;2023-02-28T17:53:40;4.70;92.60